Time;durP1;ratioP1;P1;durP2;ratioP2;P2;SDS_P1;SDS_P2;PMS_P1;PMS_P2;Temp;Humidity;BMP_temperature;BMP_pressure;BME280_temperature;BME280_humidity;BME280_pressure;Samples;Min_cycle;Max_cycle;Signal;HPM_P1;HPM_P2
2021/09/15 04:45:38;;;;;;;23.57;14.73;;;;;;;11.53;84.06;100474.42;1681225;83;21593;-39
2021/09/15 04:48:07;;;;;;;29.92;14.25;;;;;;;11.68;84.77;100480.52;1661792;83;21100;-39
2021/09/15 04:50:52;;;;;;;31.33;15.40;;;;;;;11.80;85.05;100475.70;1643658;85;21355;-37
2021/09/15 04:56:47;;;;;;;32.23;14.68;;;;;;;12.03;85.58;100474.80;1698713;82;21229;-37
2021/09/15 04:59:23;;;;;;;30.27;15.30;;;;;;;12.14;85.81;100483.52;1658059;83;21013;-36
2021/09/15 05:02:02;;;;;;;26.37;13.95;;;;;;;12.22;85.94;100485.66;1682185;82;21532;-39
2021/09/15 05:07:09;;;;;;;25.62;14.85;;;;;;;12.43;86.05;100477.70;1713679;82;21261;-36
2021/09/15 05:09:51;;;;;;;26.62;13.93;;;;;;;12.58;85.83;100476.77;1699135;81;21025;-37
2021/09/15 05:12:43;;;;;;;25.52;13.83;;;;;;;12.72;85.23;100476.68;1649409;84;21152;-37
2021/09/15 05:15:39;;;;;;;23.52;13.62;;;;;;;12.87;84.65;100477.01;1708024;81;21144;-39
2021/09/15 05:18:13;;;;;;;20.15;12.88;;;;;;;12.99;84.42;100476.95;1676430;83;21196;-39
2021/09/15 05:31:23;;;;;;;19.80;10.48;;;;;;;13.47;83.45;100486.67;1682971;79;21099;-36
2021/09/15 05:33:57;;;;;;;16.07;9.98;;;;;;;13.67;82.38;100486.47;1657444;82;21454;-36
2021/09/15 05:40:24;;;;;;;15.05;6.58;;;;;;;13.96;80.76;100483.55;1629320;86;21411;-37
2021/09/15 05:45:41;;;;;;;7.78;5.40;;;;;;;14.40;77.59;100488.75;1705911;81;21570;-36
2021/09/15 05:51:51;;;;;;;17.27;6.10;;;;;;;14.67;73.73;100488.43;1685745;81;21036;-39
2021/09/15 05:54:42;;;;;;;11.30;5.05;;;;;;;14.80;72.98;100500.98;1610890;85;21068;-39
2021/09/15 05:57:28;;;;;;;14.50;5.35;;;;;;;14.99;71.57;100497.63;1659602;82;21513;-36
2021/09/15 06:00:24;;;;;;;10.93;4.65;;;;;;;15.10;70.86;100499.20;1706377;80;21046;-37
2021/09/15 06:09:29;;;;;;;5.33;3.50;;;;;;;15.58;64.31;100506.33;1667918;81;21206;-36
2021/09/15 06:15:24;;;;;;;7.60;3.87;;;;;;;15.77;61.95;100513.08;1645596;82;21073;-36
2021/09/15 06:22:47;;;;;;;9.65;3.05;;;;;;;15.99;60.73;100514.85;1688050;82;21453;-36
2021/09/15 06:32:13;;;;;;;5.37;2.60;;;;;;;16.17;58.06;100517.59;1690028;81;21097;-35
2021/09/15 06:35:33;;;;;;;6.53;2.60;;;;;;;16.24;57.89;100515.27;1664926;83;21032;-39
2021/09/15 06:38:14;;;;;;;5.00;2.25;;;;;;;16.32;55.98;100521.26;1636541;83;21087;-35
2021/09/15 06:40:59;;;;;;;5.42;2.77;;;;;;;16.38;55.70;100522.91;1651042;83;21026;-36
2021/09/15 06:46:01;;;;;;;4.87;2.35;;;;;;;16.59;54.34;100525.57;1688863;82;21034;-36
2021/09/15 06:48:52;;;;;;;8.73;2.60;;;;;;;16.66;54.18;100531.14;1630034;85;21667;-36
2021/09/15 06:51:32;;;;;;;4.12;1.80;;;;;;;16.78;53.36;100532.68;1619670;83;21064;-36
2021/09/15 06:54:18;;;;;;;3.60;2.10;;;;;;;16.90;52.97;100529.31;1683606;81;21569;-36
2021/09/15 06:56:57;;;;;;;3.08;1.82;;;;;;;17.02;52.49;100526.39;1683413;82;21363;-36
2021/09/15 07:03:29;;;;;;;2.12;1.98;;;;;;;17.25;52.03;100527.63;1689901;82;21625;-39
2021/09/15 07:06:22;;;;;;;4.75;2.20;;;;;;;17.38;51.40;100534.35;1656408;83;21020;-39
2021/09/15 07:09:06;;;;;;;6.20;2.37;;;;;;;17.49;49.91;100530.13;1644521;83;22289;-36
2021/09/15 07:11:50;;;;;;;12.50;2.27;;;;;;;17.59;49.49;100526.81;1639543;83;21723;-39
2021/09/15 07:18:58;;;;;;;4.85;2.58;;;;;;;17.76;49.22;100525.96;1677746;81;21158;31
2021/09/15 07:25:44;;;;;;;7.75;3.37;;;;;;;17.92;46.20;100533.06;1657883;82;21135;-36
2021/09/15 07:35:30;;;;;;;6.05;2.98;;;;;;;17.95;44.96;100526.34;1633004;83;21145;31
2021/09/15 07:38:30;;;;;;;6.75;2.22;;;;;;;17.97;44.94;100530.67;1585754;87;21770;-39
2021/09/15 07:41:41;;;;;;;5.62;2.95;;;;;;;18.04;45.60;100536.23;1598809;88;21142;-36
2021/09/15 07:44:28;;;;;;;8.68;2.17;;;;;;;18.18;45.23;100530.56;1630624;85;21098;-36
2021/09/15 07:47:31;;;;;;;5.15;2.45;;;;;;;18.31;44.50;100527.11;1609829;85;21200;-36
2021/09/15 07:50:10;;;;;;;2.02;1.65;;;;;;;18.38;44.83;100526.47;1599582;86;21182;-36
2021/09/15 07:59:58;;;;;;;4.97;1.30;;;;;;;18.45;44.66;100524.95;1667515;81;21204;-36
2021/09/15 08:03:31;;;;;;;4.55;1.42;;;;;;;18.49;44.72;100523.06;1697988;81;21239;-38
2021/09/15 08:07:01;;;;;;;3.27;1.70;;;;;;;18.54;44.85;100524.67;1668344;82;21131;31
2021/09/15 08:10:14;;;;;;;4.87;1.65;;;;;;;18.61;43.71;100509.45;1625490;86;21078;-39
2021/09/15 08:13:24;;;;;;;8.25;1.95;;;;;;;18.64;44.38;100517.33;1597377;87;21576;-36
2021/09/15 08:19:23;;;;;;;6.37;2.42;;;;;;;18.77;42.73;100521.38;1603774;88;22106;-36
2021/09/15 08:22:00;;;;;;;8.67;2.83;;;;;;;18.69;43.50;100520.75;1590888;87;21428;-37
2021/09/15 08:24:28;;;;;;;6.62;1.30;;;;;;;18.70;43.16;100517.64;1537808;89;21679;-39
2021/09/15 08:26:56;;;;;;;5.37;2.00;;;;;;;18.68;43.13;100515.50;1586033;87;21119;-36
2021/09/15 08:34:18;;;;;;;7.62;1.72;;;;;;;18.64;43.17;100512.03;1636888;82;20239;-37
2021/09/15 08:40:55;;;;;;;4.08;2.05;;;;;;;18.83;43.03;100502.63;1653364;81;21023;-37
2021/09/15 08:43:23;;;;;;;7.10;1.40;;;;;;;19.00;43.03;100505.22;1671593;83;21112;-39
2021/09/15 08:49:49;;;;;;;6.10;1.87;;;;;;;19.08;41.98;100501.89;1598850;84;21557;-39
2021/09/15 08:55:03;;;;;;;5.17;2.05;;;;;;;19.22;42.31;100497.00;1681931;82;21960;-36
2021/09/15 08:58:08;;;;;;;3.50;1.67;;;;;;;19.31;41.33;100499.83;1693323;82;21230;-36
2021/09/15 10:06:46;;;;;;;3.75;1.80;;;;;;;20.20;39.26;100465.30;1495361;94;21728;-39
2021/09/15 10:24:17;;;;;;;2.22;1.60;;;;;;;21.83;34.84;100447.69;1592046;87;21121;-40
2021/09/15 10:27:10;;;;;;;2.83;1.75;;;;;;;22.09;33.63;100451.87;1577387;85;21218;-38
2021/09/15 10:30:15;;;;;;;1.55;1.30;;;;;;;22.34;33.71;100432.98;1645813;83;20969;-39
2021/09/15 10:32:58;;;;;;;;;;;;;;;22.75;32.99;100437.69;1643609;84;21716;-38
2021/09/15 10:35:46;;;;;;;2.87;1.40;;;;;;;23.06;33.30;100433.55;1664099;82;20137;-38
2021/09/15 10:38:22;;;;;;;7.90;2.08;;;;;;;23.39;32.99;100432.34;1707159;82;21420;-41
2021/09/15 10:43:56;;;;;;;5.90;2.00;;;;;;;24.48;31.80;100435.51;1686976;83;21083;-38
2021/09/15 10:46:40;;;;;;;3.42;2.08;;;;;;;24.88;30.30;100427.44;1656851;83;21066;-38
2021/09/15 10:49:31;;;;;;;5.85;1.70;;;;;;;25.17;29.10;100424.45;1687557;81;21084;-39
2021/09/15 10:58:19;;;;;;;6.12;1.87;;;;;;;26.45;28.06;100399.66;1653923;83;21226;31
2021/09/15 11:05:05;;;;;;;4.12;1.95;;;;;;;26.78;26.50;100408.66;1657792;81;21140;-37
2021/09/15 11:08:24;;;;;;;7.97;2.17;;;;;;;26.57;27.08;100403.37;1614173;86;21583;-40
2021/09/15 11:11:07;;;;;;;4.83;2.22;;;;;;;26.81;26.85;100402.25;1577370;86;21135;-40
2021/09/15 11:21:00;;;;;;;5.62;1.95;;;;;;;25.76;26.65;100399.08;1537233;91;21127;-38
2021/09/15 11:25:09;;;;;;;5.90;1.80;;;;;;;25.00;27.84;100401.78;1525327;91;21182;-38
2021/09/15 11:28:31;;;;;;;2.65;1.90;;;;;;;24.62;28.47;100395.47;1527240;92;21130;-41
2021/09/15 11:50:57;;;;;;;7.58;2.70;;;;;;;22.39;30.17;100378.14;1572560;88;21494;-41
2021/09/15 11:57:46;;;;;;;5.47;2.00;;;;;;;21.96;30.79;100366.77;1591966;85;21143;-39
2021/09/15 12:00:27;;;;;;;13.98;2.87;;;;;;;21.83;30.55;100359.81;1593198;86;21660;-40
2021/09/15 12:02:59;;;;;;;8.90;2.42;;;;;;;21.86;31.16;100365.45;1612642;86;21073;-41
2021/09/15 12:05:27;;;;;;;9.48;3.27;;;;;;;21.84;30.30;100370.85;1628642;86;21081;-37
2021/09/15 12:08:03;;;;;;;5.03;2.47;;;;;;;21.79;30.08;100363.53;1615108;86;21190;-38
2021/09/15 12:10:36;;;;;;;7.15;3.30;;;;;;;21.73;30.23;100364.67;1626342;86;20993;-37
2021/09/15 12:13:11;;;;;;;6.78;2.77;;;;;;;21.73;30.39;100361.15;1650127;85;21190;-41
2021/09/15 12:15:53;;;;;;;8.18;2.52;;;;;;;21.76;30.77;100365.02;1600647;87;21111;-38
2021/09/15 12:18:43;;;;;;;4.95;2.02;;;;;;;21.79;30.37;100363.06;1604793;87;21305;-41
2021/09/15 12:21:32;;;;;;;;;;;;;;;21.85;30.27;100348.61;1607037;85;21204;-38
2021/09/15 12:27:14;;;;;;;5.80;2.20;;;;;;;22.24;28.60;100346.41;1636638;86;21093;-41
2021/09/15 12:29:52;;;;;;;9.33;2.52;;;;;;;22.30;28.43;100354.10;1630386;86;21071;-40
2021/09/15 12:32:41;;;;;;;7.90;3.00;;;;;;;22.24;29.51;100345.06;1665053;84;21103;-39
2021/09/15 12:35:38;;;;;;;5.17;2.22;;;;;;;22.18;29.00;100347.55;1628099;85;21251;-38
2021/09/15 12:38:08;;;;;;;4.22;2.12;;;;;;;22.09;28.33;100349.30;1651668;85;21182;-41
2021/09/15 12:40:38;;;;;;;4.83;2.12;;;;;;;22.07;28.81;100344.96;1640546;85;21649;-38
2021/09/15 12:43:10;;;;;;;3.87;1.80;;;;;;;22.06;28.68;100344.11;1625123;85;21660;-41
2021/09/15 12:45:40;;;;;;;8.03;1.90;;;;;;;22.02;28.13;100347.83;1645332;85;21032;-40
2021/09/15 12:48:15;;;;;;;3.57;1.90;;;;;;;21.93;28.51;100337.16;1614659;86;21169;-41
2021/09/15 12:50:52;;;;;;;2.58;2.08;;;;;;;21.90;28.80;100337.28;1624715;87;21338;-40
2021/09/15 12:53:36;;;;;;;8.60;1.82;;;;;;;21.87;28.05;100336.11;1615033;86;21080;-41
2021/09/15 12:56:08;;;;;;;7.62;1.80;;;;;;;21.88;28.93;100332.97;1620785;87;21050;-40
2021/09/15 12:58:36;;;;;;;2.87;1.60;;;;;;;21.96;28.75;100328.14;1578950;88;21158;-40
2021/09/15 13:01:06;;;;;;;14.45;1.95;;;;;;;22.06;28.96;100328.12;1614181;86;21072;-39
2021/09/15 13:03:39;;;;;;;8.40;2.37;;;;;;;22.15;29.01;100321.07;1604529;87;21663;-41
2021/09/15 13:08:47;;;;;;;4.97;2.40;;;;;;;22.34;28.77;100316.19;1658949;85;21057;-38
2021/09/15 13:11:15;;;;;;;4.30;2.05;;;;;;;22.32;28.16;100313.58;1643749;85;21136;-37
2021/09/15 13:13:43;;;;;;;3.95;1.72;;;;;;;22.29;29.11;100317.73;1631610;84;21163;-41
2021/09/15 13:16:12;;;;;;;8.70;1.62;;;;;;;22.33;28.37;100316.66;1643320;85;21163;-38
2021/09/15 13:18:41;;;;;;;2.67;1.67;;;;;;;22.36;28.37;100309.84;1655046;85;21115;-41
2021/09/15 13:21:10;;;;;;;5.97;1.52;;;;;;;22.35;27.79;100314.78;1612075;84;21135;-41
2021/09/15 13:23:54;;;;;;;3.60;1.55;;;;;;;22.29;27.32;100306.61;1644474;84;21609;-41
2021/09/15 13:26:30;;;;;;;3.65;1.65;;;;;;;22.28;27.87;100304.03;1650083;84;21084;-38
2021/09/15 13:28:58;;;;;;;6.30;1.75;;;;;;;22.38;27.67;100293.33;1637587;85;21576;-38
2021/09/15 13:31:26;;;;;;;2.10;1.60;;;;;;;22.43;27.71;100293.93;1630878;85;21027;-41
2021/09/15 13:33:53;;;;;;;2.52;1.77;;;;;;;22.41;28.11;100294.48;1676459;84;21047;-38
2021/09/15 13:36:22;;;;;;;7.28;1.60;;;;;;;22.41;27.72;100288.30;1663284;84;21076;-38
2021/09/15 13:39:04;;;;;;;7.33;2.47;;;;;;;22.49;27.87;100290.97;1661767;84;21113;-37
2021/09/15 13:41:34;;;;;;;9.78;2.98;;;;;;;22.62;27.35;100285.05;1633036;84;21098;-41
2021/09/15 13:44:02;;;;;;;4.65;1.62;;;;;;;22.66;27.29;100286.12;1674315;84;21150;-41
2021/09/15 13:46:34;;;;;;;8.35;2.17;;;;;;;22.62;26.15;100284.58;1647977;84;21092;-41
2021/09/15 13:49:02;;;;;;;4.40;2.15;;;;;;;22.51;26.04;100284.25;1610656;82;21159;-39
2021/09/15 13:53:57;;;;;;;8.03;2.10;;;;;;;22.47;25.91;100280.00;1657370;85;21652;-38
2021/09/15 13:56:25;;;;;;;3.52;1.92;;;;;;;22.57;25.66;100283.94;1612733;87;21121;-40
2021/09/15 13:59:05;;;;;;;5.22;1.80;;;;;;;22.69;25.25;100281.13;1604352;86;21186;-41
2021/09/15 14:01:39;;;;;;;6.12;1.65;;;;;;;22.72;25.74;100279.16;1628688;85;21022;-38
2021/09/15 14:06:33;;;;;;;6.83;1.40;;;;;;;22.82;25.96;100279.09;1635032;87;21591;-38
2021/09/15 14:09:02;;;;;;;12.35;1.80;;;;;;;23.19;25.80;100279.88;1664850;82;21497;-38
2021/09/15 14:11:31;;;;;;;3.10;1.80;;;;;;;23.83;25.33;100275.59;1647535;85;21024;-41
2021/09/15 14:14:00;;;;;;;5.28;1.60;;;;;;;24.09;25.13;100280.84;1637149;85;21142;-38
2021/09/15 14:16:31;;;;;;;7.28;2.02;;;;;;;24.04;25.30;100280.23;1671759;84;21517;-40
2021/09/15 14:19:00;;;;;;;6.67;2.62;;;;;;;23.84;25.09;100276.87;1663200;84;21795;-41
2021/09/15 14:21:52;;;;;;;11.70;2.72;;;;;;;23.67;25.57;100275.59;1618745;84;21073;-38
2021/09/15 14:24:22;;;;;;;1.98;1.47;;;;;;;23.57;25.47;100282.34;1655526;85;21107;-38
2021/09/15 14:26:50;;;;;;;2.65;1.62;;;;;;;23.54;24.92;100291.83;1646374;85;21232;-41
2021/09/15 14:31:53;;;;;;;9.15;2.00;;;;;;;23.82;24.44;100280.55;1610945;88;21177;-40
2021/09/15 14:34:21;;;;;;;18.07;9.40;;;;;;;24.12;24.34;100275.30;1576067;86;21062;-41
2021/09/15 14:36:49;;;;;;;9.63;5.30;;;;;;;24.33;23.88;100279.92;1601114;86;21633;-38
2021/09/15 14:39:17;;;;;;;4.40;2.15;;;;;;;24.83;22.97;100270.80;1633037;86;21083;-41
2021/09/15 14:41:46;;;;;;;5.65;3.47;;;;;;;25.08;22.45;100265.72;1614318;86;21140;-38
2021/09/15 14:44:13;;;;;;;12.88;6.22;;;;;;;25.08;22.45;100265.72;1610735;86;21235;-41
2021/09/15 14:46:43;;;;;;;12.95;2.65;;;;;;;25.30;22.14;100267.09;1627359;86;21080;-41
2021/09/15 14:51:59;;;;;;;4.28;1.47;;;;;;;25.18;22.48;100276.74;1621007;82;21203;-39
2021/09/15 14:54:27;;;;;;;5.30;1.77;;;;;;;24.81;22.91;100273.55;1671489;83;21109;-40
2021/09/15 14:56:55;;;;;;;13.60;3.10;;;;;;;24.56;22.67;100278.63;1698070;83;21141;-40
2021/09/15 14:59:25;;;;;;;11.40;3.20;;;;;;;24.58;23.00;100276.71;1644381;84;21035;-38
2021/09/15 15:01:53;;;;;;;14.90;2.65;;;;;;;24.63;23.47;100282.18;1676108;84;21097;-39
2021/09/15 15:04:23;;;;;;;5.75;1.82;;;;;;;24.78;23.74;100273.75;1645440;86;21553;-41
2021/09/15 15:06:51;;;;;;;4.37;1.85;;;;;;;24.92;23.88;100275.11;1592517;87;21201;-41
2021/09/15 15:09:21;;;;;;;7.78;2.20;;;;;;;24.80;23.77;100275.84;1579771;87;21613;-40
2021/09/15 15:11:49;;;;;;;11.83;3.20;;;;;;;24.66;24.23;100278.00;1646351;85;21108;-38
2021/09/15 15:14:17;;;;;;;10.00;4.60;;;;;;;24.32;24.17;100284.41;1626302;84;21054;-40
2021/09/15 15:16:46;;;;;;;9.85;4.72;;;;;;;23.94;24.15;100286.55;1635576;85;21154;-40
